Time;durP1;ratioP1;P1;durP2;ratioP2;P2;SDS_P1;SDS_P2;PMS_P1;PMS_P2;Temp;Humidity;BMP_temperature;BMP_pressure;BME280_temperature;BME280_humidity;BME280_pressure;Samples;Min_cycle;Max_cycle;Signal;HPM_P1;HPM_P2
2024/01/29 00:04:31;;;;;;;9.60;5.30;;;;;6.60;101899.00;;;;12650148;23;20298;-82
2024/01/29 00:09:33;;;;;;;9.90;5.13;;;;;6.50;101906.00;;;;12652080;23;20206;-82
2024/01/29 00:14:35;;;;;;;6.73;4.53;;;;;6.50;101907.00;;;;12701382;23;21041;-81
2024/01/29 00:19:37;;;;;;;9.17;4.77;;;;;6.30;101903.00;;;;12653926;23;20562;-81
2024/01/29 00:24:40;;;;;;;8.10;4.90;;;;;6.10;101893.00;;;;12630062;23;20203;-80
2024/01/29 00:29:42;;;;;;;9.53;4.57;;;;;5.80;101893.00;;;;12654159;23;20188;-81
2024/01/29 00:34:46;;;;;;;8.23;5.47;;;;;5.60;101891.00;;;;12679681;23;20561;-81
2024/01/29 00:39:49;;;;;;;8.03;4.67;;;;;5.40;101904.00;;;;12630942;23;20223;-81
2024/01/29 00:44:50;;;;;;;7.77;5.00;;;;;5.40;101897.00;;;;12656198;23;20192;-81
2024/01/29 00:49:52;;;;;;;9.30;5.40;;;;;5.10;101903.00;;;;12655125;23;20565;-81
2024/01/29 00:54:54;;;;;;;10.10;5.20;;;;;4.90;101911.00;;;;12631077;23;20196;-81
2024/01/29 00:59:56;;;;;;;9.10;4.73;;;;;4.80;101906.00;;;;12630791;23;20741;-81
2024/01/29 01:04:58;;;;;;;9.03;5.03;;;;;4.60;101897.00;;;;12679979;23;20195;-81
2024/01/29 01:10:01;;;;;;;9.23;5.40;;;;;4.50;101890.00;;;;12655394;23;20195;-80
2024/01/29 01:15:03;;;;;;;9.07;4.80;;;;;4.40;101899.00;;;;12654527;23;20199;-80
2024/01/29 01:20:06;;;;;;;10.27;4.90;;;;;4.30;101918.00;;;;12678110;23;20203;-81
2024/01/29 01:25:08;;;;;;;6.57;4.83;;;;;4.20;101916.00;;;;12630203;23;20213;-78
2024/01/29 01:30:10;;;;;;;6.47;4.40;;;;;4.00;101913.00;;;;12678486;23;20749;-79
2024/01/29 01:35:12;;;;;;;9.47;5.20;;;;;3.90;101904.00;;;;12656541;23;20286;-78
2024/01/29 01:40:14;;;;;;;7.47;4.53;;;;;3.70;101914.00;;;;12706544;23;20192;-78
2024/01/29 01:45:16;;;;;;;8.63;5.50;;;;;3.70;101918.00;;;;12681221;23;20223;-78
2024/01/29 01:50:18;;;;;;;9.83;5.23;;;;;3.50;101919.00;;;;12656498;23;20257;-79
2024/01/29 01:55:20;;;;;;;8.13;4.70;;;;;3.50;101915.00;;;;12632883;23;20200;-78
2024/01/29 02:00:22;;;;;;;7.70;4.97;;;;;3.40;101916.00;;;;12656567;23;20566;-80
2024/01/29 02:05:24;;;;;;;7.67;4.73;;;;;3.40;101914.00;;;;12655621;23;20774;-80
2024/01/29 02:10:26;;;;;;;8.43;5.13;;;;;3.30;101912.00;;;;12680865;23;20245;-80
2024/01/29 02:15:28;;;;;;;8.20;4.83;;;;;3.30;101910.00;;;;12680584;23;20223;-81
2024/01/29 02:20:31;;;;;;;8.97;4.67;;;;;3.30;101910.00;;;;12655312;23;20257;-82
2024/01/29 02:25:33;;;;;;;8.40;5.07;;;;;3.20;101919.00;;;;12656691;23;20195;-80
2024/01/29 02:30:35;;;;;;;7.80;4.77;;;;;3.20;101930.00;;;;12658044;23;20298;-80
2024/01/29 02:35:37;;;;;;;9.47;5.13;;;;;3.20;101933.00;;;;12655004;23;20206;-81
2024/01/29 02:40:39;;;;;;;9.63;5.03;;;;;3.00;101928.00;;;;12657434;23;20195;-80
2024/01/29 02:45:41;;;;;;;7.83;4.73;;;;;3.00;101927.00;;;;12655352;23;20188;-80
2024/01/29 02:50:42;;;;;;;8.03;4.73;;;;;2.90;101929.00;;;;12705722;23;20203;-81
2024/01/29 02:55:44;;;;;;;8.37;5.13;;;;;2.80;101922.00;;;;12656116;23;20210;-81
2024/01/29 03:00:46;;;;;;;7.87;4.53;;;;;2.80;101918.00;;;;12679685;23;20265;-81
2024/01/29 03:05:48;;;;;;;10.73;4.97;;;;;2.70;101922.00;;;;12657074;23;20494;-79
2024/01/29 03:10:50;;;;;;;7.93;4.93;;;;;2.70;101915.00;;;;12705349;23;20564;-81
2024/01/29 03:15:52;;;;;;;7.93;5.53;;;;;2.70;101916.00;;;;12678552;23;20249;-79
2024/01/29 03:20:54;;;;;;;7.27;4.60;;;;;2.60;101929.00;;;;12652702;23;20677;-78
2024/01/29 03:25:56;;;;;;;9.30;4.80;;;;;2.60;101921.00;;;;12656874;23;20191;-78
2024/01/29 03:30:58;;;;;;;8.67;4.87;;;;;2.60;101922.00;;;;12655950;23;20195;-77
2024/01/29 03:36:05;;;;;;;7.47;4.40;;;;;2.60;101926.00;;;;12631474;23;20230;-77
2024/01/29 03:41:08;;;;;;;7.80;5.20;;;;;2.50;101924.00;;;;12655714;23;20226;-77
2024/01/29 03:46:09;;;;;;;7.23;4.40;;;;;2.50;101926.00;;;;12679191;23;20294;-77
2024/01/29 03:51:11;;;;;;;5.13;3.80;;;;;2.50;101927.00;;;;12680445;23;20191;-78
2024/01/29 03:56:15;;;;;;;5.77;3.70;;;;;2.50;101936.00;;;;12679997;23;20218;-78
2024/01/29 04:01:27;;;;;;;8.07;4.20;;;;;2.60;101936.00;;;;12630141;23;20192;-78
2024/01/29 04:06:29;;;;;;;7.27;4.67;;;;;2.60;101943.00;;;;12680225;23;20219;-78
2024/01/29 04:11:31;;;;;;;6.10;4.13;;;;;2.60;101947.00;;;;12631645;23;20200;-78
2024/01/29 04:16:33;;;;;;;7.97;4.33;;;;;2.60;101957.00;;;;12678313;23;20241;-79
2024/01/29 04:21:40;;;;;;;6.97;4.50;;;;;2.60;101953.00;;;;12678892;23;20203;-79
2024/01/29 04:26:42;;;;;;;6.07;4.93;;;;;2.70;101952.00;;;;12654482;23;20195;-80
2024/01/29 04:31:44;;;;;;;6.30;4.30;;;;;2.80;101951.00;;;;12630221;23;20231;-81
2024/01/29 04:36:46;;;;;;;6.13;4.80;;;;;2.80;101946.00;;;;12655133;23;21001;-81
2024/01/29 04:41:48;;;;;;;5.67;4.33;;;;;2.80;101960.00;;;;12654264;23;20196;-81
2024/01/29 04:46:50;;;;;;;7.47;4.97;;;;;2.70;101963.00;;;;12678449;23;20700;-80
2024/01/29 04:51:52;;;;;;;5.70;4.33;;;;;2.60;101965.00;;;;12655154;23;20278;-81
2024/01/29 04:56:53;;;;;;;7.07;5.07;;;;;2.50;101973.00;;;;12654956;23;20674;-80
2024/01/29 05:01:55;;;;;;;6.57;4.60;;;;;2.40;101977.00;;;;12676747;23;20194;-80
2024/01/29 05:06:57;;;;;;;5.60;4.40;;;;;2.40;101957.00;;;;12630408;23;20202;-81
2024/01/29 05:11:59;;;;;;;6.37;4.80;;;;;2.50;101964.00;;;;12679507;23;20206;-80
2024/01/29 05:17:01;;;;;;;9.33;5.07;;;;;2.50;101952.00;;;;12653522;23;20200;-81
2024/01/29 05:22:04;;;;;;;9.13;5.00;;;;;2.70;101958.00;;;;12655590;23;20253;-81
2024/01/29 05:27:05;;;;;;;7.43;5.43;;;;;2.80;101963.00;;;;12677818;23;20199;-81
2024/01/29 05:32:07;;;;;;;7.10;4.93;;;;;3.00;101953.00;;;;12678732;23;20213;-80
2024/01/29 05:37:09;;;;;;;6.10;4.73;;;;;3.00;101967.00;;;;12678989;23;20200;-86
2024/01/29 05:42:11;;;;;;;5.87;4.83;;;;;2.90;101973.00;;;;12704121;22;20196;-87
2024/01/29 05:47:13;;;;;;;5.60;4.70;;;;;2.80;101972.00;;;;12654372;23;20199;-86
2024/01/29 05:52:14;;;;;;;9.57;6.67;;;;;2.70;101975.00;;;;12654393;23;20226;-86
2024/01/29 05:57:19;;;;;;;13.57;8.53;;;;;2.60;101976.00;;;;12655044;23;20195;-86
2024/01/29 06:02:21;;;;;;;21.53;13.97;;;;;2.50;101985.00;;;;12702322;23;20206;-87
2024/01/29 06:07:23;;;;;;;17.87;12.40;;;;;2.40;101979.00;;;;12705676;23;20203;-87
2024/01/29 06:12:25;;;;;;;17.23;12.77;;;;;2.30;101981.00;;;;12630459;23;20203;-87
2024/01/29 06:17:27;;;;;;;22.77;14.60;;;;;2.30;101990.00;;;;12630299;23;20270;-85
2024/01/29 06:22:29;;;;;;;13.20;9.93;;;;;2.20;102007.00;;;;12679908;23;20200;-87
2024/01/29 06:27:31;;;;;;;9.67;6.77;;;;;2.40;102005.00;;;;12633369;23;20283;-87
2024/01/29 06:32:33;;;;;;;11.93;7.47;;;;;2.50;101999.00;;;;12707340;22;20682;-86
2024/01/29 06:37:35;;;;;;;9.93;5.77;;;;;2.50;101991.00;;;;12681357;23;20200;-86
2024/01/29 06:42:36;;;;;;;9.00;6.33;;;;;2.80;101997.00;;;;12657581;23;20274;-84
2024/01/29 06:47:38;;;;;;;8.53;6.33;;;;;3.10;102010.00;;;;12680475;23;20226;-78
2024/01/29 06:52:40;;;;;;;8.80;6.90;;;;;3.10;102013.00;;;;12655174;23;20211;-79
2024/01/29 06:57:43;;;;;;;10.97;7.23;;;;;3.00;102016.00;;;;12623077;23;20808;-79
2024/01/29 07:02:45;;;;;;;9.73;6.27;;;;;2.90;102020.00;;;;12632218;23;20210;-79
2024/01/29 07:07:47;;;;;;;9.07;6.10;;;;;2.90;102017.00;;;;12632430;23;20516;-80
2024/01/29 07:12:49;;;;;;;9.87;6.73;;;;;3.20;102024.00;;;;12631753;23;20249;-79
2024/01/29 07:17:51;;;;;;;9.07;6.20;;;;;3.60;102025.00;;;;12630967;23;20196;-80
2024/01/29 07:22:53;;;;;;;9.70;6.43;;;;;3.80;102037.00;;;;12655344;23;20199;-79
2024/01/29 07:27:56;;;;;;;10.40;6.90;;;;;4.10;102042.00;;;;12633680;23;20194;-77
2024/01/29 07:32:59;;;;;;;10.17;6.40;;;;;4.30;102052.00;;;;12611204;23;20195;-80
2024/01/29 07:38:01;;;;;;;12.63;7.23;;;;;4.50;102065.00;;;;12631559;23;20188;-79
2024/01/29 07:43:03;;;;;;;10.53;6.93;;;;;4.50;102065.00;;;;12678873;23;20199;-80
2024/01/29 07:48:05;;;;;;;10.67;6.27;;;;;4.50;102085.00;;;;12652219;23;20211;-79
2024/01/29 07:53:07;;;;;;;7.90;6.43;;;;;4.50;102074.00;;;;12650406;23;20196;-80
2024/01/29 07:58:11;;;;;;;7.73;6.57;;;;;4.60;102072.00;;;;12674015;23;20199;-80
2024/01/29 08:03:13;;;;;;;9.67;6.80;;;;;4.80;102079.00;;;;12648793;23;20195;-78
2024/01/29 08:08:14;;;;;;;8.40;6.20;;;;;5.10;102082.00;;;;12675204;23;20202;-80
2024/01/29 08:13:16;;;;;;;10.77;6.47;;;;;5.40;102081.00;;;;12624649;23;20279;-79
2024/01/29 08:18:18;;;;;;;9.33;6.13;;;;;5.80;102082.00;;;;12672767;23;20191;-80
2024/01/29 08:23:23;;;;;;;11.07;6.87;;;;;6.20;102074.00;;;;12698144;23;20208;-79
2024/01/29 08:28:25;;;;;;;8.53;6.73;;;;;6.40;102075.00;;;;12649713;23;20942;-80
2024/01/29 08:33:29;;;;;;;8.80;6.63;;;;;6.60;102074.00;;;;12672623;23;20207;-79
2024/01/29 08:38:31;;;;;;;8.20;6.43;;;;;6.80;102079.00;;;;12673037;23;20337;-80
2024/01/29 08:43:34;;;;;;;9.30;6.43;;;;;7.00;102068.00;;;;12649491;23;20211;-79
2024/01/29 08:48:36;;;;;;;9.60;7.13;;;;;7.20;102069.00;;;;12649129;23;21035;-79
2024/01/29 08:53:37;;;;;;;9.93;7.13;;;;;7.40;102065.00;;;;12649825;23;20199;-80
2024/01/29 08:58:39;;;;;;;14.10;9.37;;;;;7.60;102069.00;;;;12674880;23;20531;-78
2024/01/29 09:03:41;;;;;;;11.37;7.57;;;;;8.00;102069.00;;;;12748408;23;20237;-78
2024/01/29 09:08:43;;;;;;;11.93;7.07;;;;;8.40;102068.00;;;;12648898;23;20227;-78
2024/01/29 09:13:45;;;;;;;11.70;7.27;;;;;8.90;102074.00;;;;12673050;23;20200;-78
2024/01/29 09:18:47;;;;;;;10.57;7.27;;;;;9.40;102071.00;;;;12624813;23;20875;-77
2024/01/29 09:23:50;;;;;;;8.27;6.37;;;;;9.80;102076.00;;;;12647981;23;20195;-77
2024/01/29 09:28:51;;;;;;;9.93;6.70;;;;;9.90;102083.00;;;;12626145;23;20191;-78
2024/01/29 09:33:53;;;;;;;9.87;7.00;;;;;10.10;102085.00;;;;12647591;23;20203;-78
2024/01/29 09:38:55;;;;;;;8.10;6.40;;;;;10.80;102082.00;;;;12647696;23;20222;-78
2024/01/29 09:43:59;;;;;;;7.65;6.25;;;;;11.40;102093.00;;;;12672856;23;20199;-79
2024/01/29 09:49:01;;;;;;;8.57;5.93;;;;;11.50;102096.00;;;;12668472;23;20200;-78
2024/01/29 09:54:05;;;;;;;7.93;5.90;;;;;12.00;102104.00;;;;12642192;23;20192;-78
2024/01/29 09:59:07;;;;;;;6.78;6.07;;;;;12.50;102104.00;;;;12627674;23;20241;-78
2024/01/29 10:04:09;;;;;;;10.32;6.35;;;;;13.00;102117.00;;;;12700100;23;20195;-78
2024/01/29 10:09:13;;;;;;;10.07;6.70;;;;;13.10;102104.00;;;;12626357;23;20204;-78
2024/01/29 10:14:16;;;;;;;7.97;7.15;;;;;13.30;102102.00;;;;12674830;23;20294;-81
2024/01/29 10:19:17;;;;;;;7.28;6.10;;;;;13.50;102109.00;;;;12672440;23;20279;-83
2024/01/29 10:24:19;;;;;;;9.80;7.85;;;;;13.60;102117.00;;;;12647388;23;20200;-82
2024/01/29 10:29:22;;;;;;;11.25;9.40;;;;;13.90;102114.00;;;;12626342;23;20846;-82
2024/01/29 10:34:24;;;;;;;9.65;7.55;;;;;14.00;102119.00;;;;12626800;23;20227;-83
2024/01/29 10:39:28;;;;;;;8.55;6.32;;;;;13.90;102118.00;;;;12673855;23;20196;-82
2024/01/29 10:44:32;;;;;;;8.68;7.38;;;;;14.00;102125.00;;;;12648952;23;20202;-84
2024/01/29 10:49:36;;;;;;;11.43;6.70;;;;;14.40;102125.00;;;;12676859;23;20669;-83
2024/01/29 10:54:38;;;;;;;8.07;6.53;;;;;14.10;102119.00;;;;12650016;22;20836;-83
2024/01/29 10:59:42;;;;;;;11.25;6.82;;;;;14.10;102131.00;;;;12673012;23;20270;-83
2024/01/29 11:04:54;;;;;;;8.70;7.03;;;;;14.20;102113.00;;;;12649521;23;20196;-82
2024/01/29 11:10:06;;;;;;;11.48;7.65;;;;;14.10;102106.00;;;;12643137;23;20230;-82
2024/01/29 11:15:09;;;;;;;10.73;7.05;;;;;14.30;102100.00;;;;12641005;23;20203;-82
2024/01/29 11:20:14;;;;;;;10.40;7.22;;;;;14.60;102104.00;;;;12625626;23;20278;-83
2024/01/29 11:25:17;;;;;;;11.18;7.22;;;;;14.80;102101.00;;;;12672825;23;20564;-80
2024/01/29 11:30:21;;;;;;;12.07;6.95;;;;;14.80;102100.00;;;;12626059;23;20219;-79
2024/01/29 11:35:24;;;;;;;8.00;7.13;;;;;14.80;102103.00;;;;12650232;23;20230;-79
2024/01/29 11:40:40;;;;;;;10.50;6.90;;;;;15.30;102095.00;;;;12652019;23;20199;-79
2024/01/29 11:45:49;;;;;;;8.90;6.53;;;;;15.50;102096.00;;;;12651882;23;20218;-79
2024/01/29 11:50:54;;;;;;;10.80;6.85;;;;;15.70;102094.00;;;;12674585;23;20196;-78
2024/01/29 11:55:56;;;;;;;7.50;6.15;;;;;15.70;102092.00;;;;12674910;23;20222;-78
2024/01/29 12:00:58;;;;;;;9.02;6.03;;;;;15.90;102086.00;;;;12699840;23;20202;-78
2024/01/29 12:06:01;;;;;;;9.38;6.18;;;;;16.00;102083.00;;;;12674267;23;20298;-79
2024/01/29 12:11:03;;;;;;;8.73;7.00;;;;;15.90;102076.00;;;;12647242;23;20710;-79
2024/01/29 12:16:06;;;;;;;9.30;6.45;;;;;15.90;102082.00;;;;12625971;23;20468;-79
2024/01/29 12:21:09;;;;;;;9.63;6.10;;;;;15.90;102073.00;;;;12648807;23;20266;-80
2024/01/29 12:26:12;;;;;;;7.20;5.90;;;;;16.00;102071.00;;;;12629442;23;20196;-79
2024/01/29 12:31:14;;;;;;;9.65;6.18;;;;;16.10;102074.00;;;;12650826;23;20256;-80
2024/01/29 12:36:17;;;;;;;7.78;5.75;;;;;16.00;102074.00;;;;12649545;23;20195;-82
2024/01/29 12:41:20;;;;;;;8.98;6.40;;;;;16.00;102067.00;;;;12673773;23;20195;-80
2024/01/29 12:46:22;;;;;;;9.55;6.70;;;;;16.00;102063.00;;;;12648362;23;20199;-80
2024/01/29 12:51:25;;;;;;;7.93;6.07;;;;;16.10;102060.00;;;;12671341;23;20207;-80
2024/01/29 12:56:29;;;;;;;6.75;6.05;;;;;16.10;102066.00;;;;12647706;23;20195;-80
2024/01/29 13:01:31;;;;;;;9.73;6.32;;;;;16.20;102060.00;;;;12622922;23;20230;-79
2024/01/29 13:06:33;;;;;;;7.18;5.53;;;;;16.10;102053.00;;;;12649380;23;20249;-79
2024/01/29 13:11:35;;;;;;;7.63;6.35;;;;;16.10;102051.00;;;;12648364;23;20858;-80
2024/01/29 13:16:38;;;;;;;7.93;6.40;;;;;16.20;102055.00;;;;12625290;23;20210;-80
2024/01/29 13:21:42;;;;;;;8.30;6.00;;;;;16.30;102057.00;;;;12623289;23;20197;-80
2024/01/29 13:26:45;;;;;;;7.88;5.43;;;;;16.20;102059.00;;;;12624830;23;20218;-81
2024/01/29 13:31:47;;;;;;;9.55;5.75;;;;;15.90;102051.00;;;;12676087;23;20214;-81
2024/01/29 13:36:50;;;;;;;6.97;4.95;;;;;15.80;102045.00;;;;12628117;23;20199;-80
2024/01/29 13:41:52;;;;;;;9.07;5.40;;;;;15.50;102045.00;;;;12624080;23;20714;-81
2024/01/29 13:46:57;;;;;;;9.02;6.22;;;;;15.50;102035.00;;;;12650140;23;20236;-79
2024/01/29 13:52:02;;;;;;;9.80;5.70;;;;;15.50;102034.00;;;;12650274;23;20218;-79
2024/01/29 13:57:04;;;;;;;8.45;5.32;;;;;15.60;102033.00;;;;12626566;23;20226;-78
2024/01/29 14:02:06;;;;;;;6.05;5.07;;;;;15.40;102031.00;;;;12672174;23;20219;-79
2024/01/29 14:07:08;;;;;;;8.32;5.43;;;;;15.30;102035.00;;;;12648975;23;20241;-80
2024/01/29 14:12:10;;;;;;;8.70;5.30;;;;;15.10;102024.00;;;;12673574;23;20198;-80
2024/01/29 14:17:11;;;;;;;6.93;5.72;;;;;15.00;102016.00;;;;12649658;23;20300;-81
2024/01/29 14:22:13;;;;;;;10.27;6.60;;;;;14.90;102011.00;;;;12647044;23;20223;-79
2024/01/29 14:27:16;;;;;;;6.90;6.15;;;;;14.90;102012.00;;;;12671542;23;20226;-79
2024/01/29 14:32:18;;;;;;;9.63;5.82;;;;;14.80;102008.00;;;;12648488;23;20219;-78
2024/01/29 14:37:19;;;;;;;7.80;6.22;;;;;14.70;102021.00;;;;12628397;23;20231;-79
2024/01/29 14:42:21;;;;;;;6.85;5.65;;;;;14.50;102022.00;;;;12649837;23;20211;-79
2024/01/29 14:47:24;;;;;;;10.38;5.78;;;;;14.40;102031.00;;;;12650354;23;20195;-79
2024/01/29 14:52:26;;;;;;;9.30;5.68;;;;;14.30;102035.00;;;;12673203;23;20202;-79
2024/01/29 14:57:28;;;;;;;9.50;6.05;;;;;14.10;102036.00;;;;12674130;23;20196;-81
2024/01/29 15:02:29;;;;;;;7.53;5.35;;;;;14.00;102037.00;;;;12648701;23;20203;-81
2024/01/29 15:07:31;;;;;;;7.10;5.55;;;;;13.90;102037.00;;;;12674891;23;20215;-81
2024/01/29 15:12:33;;;;;;;8.40;6.32;;;;;13.80;102046.00;;;;12649608;23;20195;-81
2024/01/29 15:17:35;;;;;;;7.28;6.10;;;;;13.60;102034.00;;;;12672409;23;20875;-81
2024/01/29 15:22:37;;;;;;;10.68;6.15;;;;;13.40;102043.00;;;;12672473;23;20260;-80
2024/01/29 15:27:39;;;;;;;8.75;5.90;;;;;13.30;102055.00;;;;12627658;23;20205;-80
2024/01/29 15:32:41;;;;;;;7.60;5.45;;;;;13.20;102048.00;;;;12651803;23;20204;-81
2024/01/29 15:37:43;;;;;;;8.82;5.22;;;;;13.00;102055.00;;;;12626271;23;20521;-81
2024/01/29 15:42:45;;;;;;;7.05;4.88;;;;;12.90;102063.00;;;;12648503;23;20200;-81
2024/01/29 15:47:47;;;;;;;10.15;5.60;;;;;12.70;102058.00;;;;12651303;23;21077;-81
2024/01/29 15:52:49;;;;;;;7.38;5.25;;;;;12.60;102058.00;;;;12648876;23;20191;-80
2024/01/29 15:57:51;;;;;;;11.20;5.45;;;;;12.40;102062.00;;;;12673997;23;20245;-81
2024/01/29 16:02:53;;;;;;;8.45;5.60;;;;;12.20;102067.00;;;;12673054;23;20293;-79
2024/01/29 16:07:55;;;;;;;9.00;5.90;;;;;12.00;102069.00;;;;12676630;23;20271;-80
2024/01/29 16:12:58;;;;;;;7.55;5.95;;;;;11.90;102071.00;;;;12631181;23;20198;-80
2024/01/29 16:18:02;;;;;;;10.30;5.78;;;;;11.80;102069.00;;;;12653470;23;20922;-80
2024/01/29 16:23:04;;;;;;;7.47;5.88;;;;;11.70;102072.00;;;;12653729;23;20217;-79
2024/01/29 16:28:07;;;;;;;10.90;7.70;;;;;11.50;102075.00;;;;12654019;23;20270;-80
2024/01/29 16:33:12;;;;;;;12.90;8.53;;;;;11.40;102075.00;;;;12633586;23;20268;-78
2024/01/29 16:38:14;;;;;;;14.30;8.00;;;;;11.30;102073.00;;;;12675229;23;20738;-80
2024/01/29 16:43:16;;;;;;;10.97;6.67;;;;;11.20;102077.00;;;;12648307;23;20199;-80
2024/01/29 16:48:18;;;;;;;10.93;6.73;;;;;11.10;102084.00;;;;12646132;23;20204;-80
2024/01/29 16:53:20;;;;;;;9.57;6.93;;;;;11.00;102079.00;;;;12647779;23;20257;-79
2024/01/29 16:58:22;;;;;;;11.30;7.23;;;;;11.00;102088.00;;;;12650913;23;20210;-79
2024/01/29 17:03:24;;;;;;;13.70;8.17;;;;;10.80;102090.00;;;;12704770;23;20204;-80
2024/01/29 17:08:26;;;;;;;10.83;7.60;;;;;10.60;102097.00;;;;12680919;23;20195;-78
2024/01/29 17:13:28;;;;;;;32.73;15.00;;;;;10.30;102095.00;;;;12656450;23;20204;-79
2024/01/29 17:18:32;;;;;;;14.30;8.67;;;;;10.10;102097.00;;;;12679331;23;20191;-80
2024/01/29 17:23:34;;;;;;;10.60;7.33;;;;;10.00;102093.00;;;;12665179;22;20199;-81
2024/01/29 17:28:36;;;;;;;10.03;7.60;;;;;10.00;102100.00;;;;12698869;23;20571;-81
2024/01/29 17:33:38;;;;;;;11.10;8.27;;;;;10.10;102090.00;;;;12666626;23;20432;-80
2024/01/29 17:38:40;;;;;;;12.07;10.40;;;;;10.00;102093.00;;;;12666006;23;20893;-81
2024/01/29 17:43:42;;;;;;;12.13;9.47;;;;;10.00;102096.00;;;;12666515;23;20191;-82
2024/01/29 17:48:46;;;;;;;17.40;9.87;;;;;9.90;102105.00;;;;12618257;23;20196;-82
2024/01/29 17:53:49;;;;;;;14.30;8.97;;;;;9.90;102099.00;;;;12642910;23;20279;-80
2024/01/29 17:58:51;;;;;;;9.77;7.50;;;;;9.90;102099.00;;;;12623848;23;20202;-80
2024/01/29 18:03:53;;;;;;;12.00;7.30;;;;;9.90;102115.00;;;;12650663;23;20281;-80
2024/01/29 18:08:55;;;;;;;10.00;7.30;;;;;9.90;102117.00;;;;12676794;23;20248;-81
2024/01/29 18:13:57;;;;;;;8.83;6.83;;;;;9.90;102108.00;;;;12648857;23;20195;-81
2024/01/29 18:18:59;;;;;;;7.87;6.73;;;;;9.80;102106.00;;;;12705560;23;20206;-80
2024/01/29 18:24:01;;;;;;;8.53;6.37;;;;;9.90;102104.00;;;;12630958;23;20228;-80
2024/01/29 18:29:03;;;;;;;8.23;6.47;;;;;9.90;102117.00;;;;12655241;23;20215;-80
2024/01/29 18:34:05;;;;;;;9.10;6.63;;;;;10.00;102121.00;;;;12656272;23;20520;-80
2024/01/29 18:39:08;;;;;;;8.90;5.77;;;;;10.10;102106.00;;;;12705802;23;20249;-81
2024/01/29 18:44:10;;;;;;;9.73;5.97;;;;;10.10;102107.00;;;;12633789;23;20695;-80
2024/01/29 18:49:12;;;;;;;10.10;6.87;;;;;10.20;102104.00;;;;12657118;23;20275;-80
2024/01/29 18:54:14;;;;;;;11.10;6.23;;;;;10.10;102111.00;;;;12633239;23;20275;-79
2024/01/29 18:59:16;;;;;;;9.87;6.67;;;;;10.00;102098.00;;;;12656656;23;20210;-80
2024/01/29 19:04:18;;;;;;;10.67;6.67;;;;;9.90;102106.00;;;;12633462;23;20699;-79
2024/01/29 19:09:21;;;;;;;10.50;6.80;;;;;9.90;102113.00;;;;12682128;23;20241;-80
2024/01/29 19:14:24;;;;;;;11.07;7.40;;;;;9.80;102111.00;;;;12633204;23;20199;-80
2024/01/29 19:19:26;;;;;;;7.40;5.90;;;;;9.80;102098.00;;;;12630949;23;20274;-80
2024/01/29 19:24:28;;;;;;;10.30;6.00;;;;;9.90;102103.00;;;;12655539;23;20643;-80
2024/01/29 19:29:30;;;;;;;8.10;5.67;;;;;10.00;102103.00;;;;12705914;23;20226;-80
2024/01/29 19:34:34;;;;;;;8.60;6.40;;;;;10.10;102097.00;;;;12680404;23;20219;-80
2024/01/29 19:39:38;;;;;;;10.00;5.73;;;;;10.10;102099.00;;;;12655675;23;20207;-79
2024/01/29 19:44:41;;;;;;;7.63;4.90;;;;;10.20;102098.00;;;;12656011;23;20222;-80
2024/01/29 19:49:45;;;;;;;7.90;5.87;;;;;10.20;102092.00;;;;12655923;23;20203;-80
2024/01/29 19:54:48;;;;;;;6.67;5.30;;;;;10.20;102093.00;;;;12632957;23;20187;-80
2024/01/29 19:59:50;;;;;;;9.93;5.50;;;;;10.20;102090.00;;;;12656473;23;20199;-80
2024/01/29 20:04:54;;;;;;;8.53;5.40;;;;;10.20;102088.00;;;;12631734;23;20200;-80
2024/01/29 20:09:56;;;;;;;6.57;5.40;;;;;10.20;102085.00;;;;12632125;23;20219;-80
2024/01/29 20:14:59;;;;;;;5.47;4.60;;;;;10.10;102093.00;;;;12656624;23;20194;-81
2024/01/29 20:20:01;;;;;;;6.37;5.20;;;;;10.10;102085.00;;;;12655402;23;20508;-80
2024/01/29 20:25:03;;;;;;;6.87;5.43;;;;;10.00;102086.00;;;;12678521;23;20195;-80
2024/01/29 20:30:06;;;;;;;9.57;5.57;;;;;10.00;102081.00;;;;12655343;23;20198;-79
2024/01/29 20:35:10;;;;;;;9.17;5.07;;;;;10.00;102089.00;;;;12656558;23;20200;-79
2024/01/29 20:40:13;;;;;;;7.83;6.03;;;;;10.00;102088.00;;;;12679475;23;20245;-80
2024/01/29 20:45:15;;;;;;;7.67;5.63;;;;;9.90;102091.00;;;;12654985;23;20765;-81
2024/01/29 20:50:17;;;;;;;6.77;6.03;;;;;9.90;102093.00;;;;12679575;23;20832;-81
2024/01/29 20:55:20;;;;;;;9.50;5.60;;;;;9.90;102086.00;;;;12655223;23;20215;-81
2024/01/29 21:00:22;;;;;;;7.27;5.20;;;;;9.70;102098.00;;;;12655350;23;20274;-81
2024/01/29 21:05:25;;;;;;;7.27;5.77;;;;;9.50;102091.00;;;;12654898;23;20747;-81
2024/01/29 21:10:28;;;;;;;11.63;6.47;;;;;9.40;102091.00;;;;12630952;23;20248;-81
2024/01/29 21:15:30;;;;;;;9.13;6.10;;;;;9.30;102086.00;;;;12653736;23;20330;-80
2024/01/29 21:20:32;;;;;;;8.00;6.10;;;;;9.30;102088.00;;;;12656864;23;20207;-81
2024/01/29 21:25:34;;;;;;;7.90;5.20;;;;;9.20;102091.00;;;;12629665;23;20641;-81
2024/01/29 21:30:35;;;;;;;7.73;5.83;;;;;9.30;102088.00;;;;12630200;23;20218;-81
2024/01/29 21:35:37;;;;;;;6.77;5.47;;;;;9.30;102081.00;;;;12654616;23;20210;-81
2024/01/29 21:40:39;;;;;;;8.63;6.47;;;;;9.30;102085.00;;;;12679029;23;20192;-80
2024/01/29 21:45:41;;;;;;;7.73;5.80;;;;;9.20;102078.00;;;;12653774;23;20707;-80
2024/01/29 21:50:43;;;;;;;6.87;6.07;;;;;9.20;102074.00;;;;12630881;23;20195;-81
2024/01/29 21:55:46;;;;;;;8.00;5.77;;;;;9.10;102067.00;;;;12681592;23;20558;-82
2024/01/29 22:00:48;;;;;;;10.00;5.80;;;;;9.10;102069.00;;;;12690231;23;20676;-82
2024/01/29 22:05:50;;;;;;;9.57;5.40;;;;;9.20;102063.00;;;;12640687;23;20265;-83
2024/01/29 22:10:52;;;;;;;6.67;5.87;;;;;9.20;102050.00;;;;12656915;23;20200;-83
2024/01/29 22:15:54;;;;;;;6.80;5.17;;;;;9.20;102059.00;;;;12633647;23;20188;-83
2024/01/29 22:20:55;;;;;;;8.97;5.37;;;;;9.30;102053.00;;;;12652753;23;20516;-82
2024/01/29 22:25:57;;;;;;;7.87;5.57;;;;;9.40;102051.00;;;;12628767;23;20565;-81
2024/01/29 22:30:59;;;;;;;7.47;5.67;;;;;9.50;102058.00;;;;12656148;23;20194;-82
2024/01/29 22:36:06;;;;;;;7.70;5.20;;;;;9.40;102054.00;;;;12632943;23;20195;-82
2024/01/29 22:41:27;;;;;;;7.93;5.33;;;;;9.40;102056.00;;;;12686649;23;20874;-82
2024/01/29 22:46:28;;;;;;;8.90;5.77;;;;;9.50;102054.00;;;;12633860;23;20195;-82
2024/01/29 22:51:30;;;;;;;7.57;5.27;;;;;9.60;102055.00;;;;12657262;23;20215;-83
2024/01/29 22:56:32;;;;;;;8.33;5.10;;;;;9.60;102060.00;;;;12682825;23;20281;-83
2024/01/29 23:01:34;;;;;;;6.03;4.87;;;;;9.50;102064.00;;;;12656275;23;20195;-82
2024/01/29 23:06:36;;;;;;;8.63;5.97;;;;;9.50;102065.00;;;;12633239;23;20841;-81
2024/01/29 23:11:38;;;;;;;9.63;4.97;;;;;9.50;102065.00;;;;12681315;23;20230;-82
2024/01/29 23:16:40;;;;;;;6.93;5.20;;;;;9.40;102061.00;;;;12632691;23;20210;-82
2024/01/29 23:21:42;;;;;;;8.83;5.33;;;;;9.40;102065.00;;;;12679562;23;20214;-82
2024/01/29 23:26:44;;;;;;;6.83;5.40;;;;;9.30;102068.00;;;;12656868;23;20199;-82
2024/01/29 23:31:46;;;;;;;7.57;5.70;;;;;9.30;102060.00;;;;12655945;23;20515;-82
2024/01/29 23:36:47;;;;;;;6.87;4.70;;;;;9.40;102054.00;;;;12656488;23;20211;-82
2024/01/29 23:41:49;;;;;;;7.70;5.47;;;;;9.50;102067.00;;;;12633723;23;20192;-81
2024/01/29 23:46:51;;;;;;;6.80;5.00;;;;;9.50;102065.00;;;;12655459;23;20663;-81
2024/01/29 23:51:53;;;;;;;8.33;5.20;;;;;9.50;102061.00;;;;12680020;23;20906;-82
2024/01/29 23:56:55;;;;;;;7.73;5.33;;;;;9.60;102056.00;;;;12656937;23;20223;-82
